createdAt,value
2018-04-18T00:00:04.832Z,1004.83
2018-04-18T00:01:04.812Z,1004.88
2018-04-18T00:02:04.823Z,1004.89
2018-04-18T00:03:04.801Z,1004.93
2018-04-18T00:04:04.800Z,1004.91
2018-04-18T00:05:04.734Z,1004.94
2018-04-18T00:06:04.741Z,1004.93
2018-04-18T00:07:04.695Z,1004.91
2018-04-18T00:08:04.682Z,1004.90
2018-04-18T00:09:04.649Z,1004.87
2018-04-18T00:10:04.636Z,1004.88
2018-04-18T00:11:04.599Z,1004.87
2018-04-18T00:12:04.609Z,1004.86
2018-04-18T00:13:04.589Z,1004.82
2018-04-18T00:14:04.584Z,1004.85
2018-04-18T00:15:04.515Z,1004.88
2018-04-18T00:16:04.541Z,1004.86
2018-04-18T00:17:04.501Z,1004.86
2018-04-18T00:18:04.486Z,1004.86
2018-04-18T00:19:04.474Z,1004.89
2018-04-18T00:20:04.416Z,1004.89
2018-04-18T00:21:04.411Z,1004.90
2018-04-18T00:22:04.425Z,1004.90
2018-04-18T00:23:04.389Z,1004.93
2018-04-18T00:24:04.361Z,1004.92
2018-04-18T00:25:04.345Z,1004.93
2018-04-18T00:26:04.341Z,1004.92
2018-04-18T00:27:04.257Z,1004.94
2018-04-18T00:28:04.276Z,1004.90
2018-04-18T00:29:04.253Z,1004.89
2018-04-18T00:30:04.194Z,1004.94
2018-04-18T00:31:04.209Z,1004.93
2018-04-18T00:32:04.182Z,1004.90
2018-04-18T00:33:04.142Z,1004.96
2018-04-18T00:34:04.111Z,1004.97
2018-04-18T00:35:04.627Z,1005.00
2018-04-18T00:36:04.112Z,1004.97
2018-04-18T00:37:04.057Z,1005.08
2018-04-18T00:38:04.040Z,1005.06
2018-04-18T00:39:04.026Z,1005.08
2018-04-18T00:40:04.060Z,1005.09
2018-04-18T00:41:04.044Z,1005.11
2018-04-18T00:42:04.039Z,1005.10
2018-04-18T00:43:04.012Z,1005.14
2018-04-18T00:44:03.980Z,1005.12
2018-04-18T00:45:03.896Z,1005.14
2018-04-18T00:46:03.894Z,1005.11
2018-04-18T00:47:03.906Z,1005.11
2018-04-18T00:48:03.833Z,1005.12
2018-04-18T00:49:03.805Z,1005.09
2018-04-18T00:50:03.807Z,1005.08
2018-04-18T00:51:03.801Z,1005.09
2018-04-18T00:52:03.750Z,1005.13
2018-04-18T00:53:03.755Z,1005.14
2018-04-18T00:54:03.738Z,1005.12
2018-04-18T00:55:03.697Z,1005.13
2018-04-18T00:56:03.774Z,1005.09
2018-04-18T00:57:03.711Z,1005.10
2018-04-18T00:58:03.673Z,1005.06
2018-04-18T00:59:03.646Z,1005.08
2018-04-18T01:00:03.649Z,1005.05
2018-04-18T01:01:03.586Z,1005.10
2018-04-18T01:02:03.570Z,1005.07
2018-04-18T01:03:03.570Z,1005.10
2018-04-18T01:04:03.487Z,1005.08
2018-04-18T01:05:03.505Z,1005.08
2018-04-18T01:06:03.512Z,1005.10
2018-04-18T01:07:03.426Z,1005.11
2018-04-18T01:08:03.427Z,1005.12
2018-04-18T01:09:03.458Z,1005.12
2018-04-18T01:10:03.432Z,1005.10
2018-04-18T01:11:03.408Z,1005.15
2018-04-18T01:12:03.351Z,1005.08
2018-04-18T01:13:03.360Z,1005.11
2018-04-18T01:14:03.318Z,1005.11
2018-04-18T01:15:03.266Z,1005.07
2018-04-18T01:16:03.258Z,1005.12
2018-04-18T01:17:03.263Z,1005.11
2018-04-18T01:18:03.286Z,1005.10
2018-04-18T01:19:03.272Z,1005.12
2018-04-18T01:20:03.192Z,1005.17
2018-04-18T01:21:03.204Z,1005.16
2018-04-18T01:22:03.182Z,1005.16
2018-04-18T01:23:03.107Z,1005.17
2018-04-18T01:24:03.115Z,1005.20
2018-04-18T01:25:03.116Z,1005.17
2018-04-18T01:26:03.165Z,1005.16
2018-04-18T01:27:03.113Z,1005.19
2018-04-18T01:28:03.057Z,1005.23
2018-04-18T01:29:03.688Z,1005.23
2018-04-18T01:30:03.020Z,1005.23
2018-04-18T01:31:03.021Z,1005.22
2018-04-18T01:32:03.030Z,1005.17
2018-04-18T01:33:02.921Z,1005.22
2018-04-18T01:34:02.909Z,1005.21
2018-04-18T01:35:02.863Z,1005.28
2018-04-18T01:36:02.878Z,1005.29
2018-04-18T01:37:02.824Z,1005.29
2018-04-18T01:38:02.829Z,1005.32
2018-04-18T01:39:02.838Z,1005.30
2018-04-18T01:40:02.778Z,1005.32
2018-04-18T01:41:02.809Z,1005.29
2018-04-18T01:42:02.730Z,1005.33
2018-04-18T01:43:02.716Z,1005.33
2018-04-18T01:44:02.677Z,1005.34
2018-04-18T01:45:02.731Z,1005.38
2018-04-18T01:46:02.685Z,1005.34
2018-04-18T01:47:02.688Z,1005.39
2018-04-18T01:48:02.605Z,1005.43
2018-04-18T01:49:02.621Z,1005.35
2018-04-18T01:50:02.565Z,1005.44
2018-04-18T01:51:02.525Z,1005.42
2018-04-18T01:52:02.533Z,1005.43
2018-04-18T01:53:02.496Z,1005.43
2018-04-18T01:54:02.451Z,1005.42
2018-04-18T01:55:02.516Z,1005.41
2018-04-18T01:56:02.454Z,1005.39
2018-04-18T01:57:02.466Z,1005.43
2018-04-18T01:58:02.449Z,1005.40
2018-04-18T01:59:02.376Z,1005.45
2018-04-18T02:00:02.373Z,1005.41
2018-04-18T02:01:02.340Z,1005.46
2018-04-18T02:02:02.292Z,1005.41
2018-04-18T02:03:02.291Z,1005.45
2018-04-18T02:04:02.336Z,1005.46
2018-04-18T02:05:02.263Z,1005.44
2018-04-18T02:06:02.229Z,1005.46
2018-04-18T02:07:02.227Z,1005.50
2018-04-18T02:08:03.189Z,1005.51
2018-04-18T02:09:02.145Z,1005.54
2018-04-18T02:10:02.192Z,1005.52
2018-04-18T02:11:02.114Z,1005.52
2018-04-18T02:12:02.120Z,1005.52
2018-04-18T02:13:02.111Z,1005.51
2018-04-18T02:14:02.056Z,1005.52
2018-04-18T02:15:02.037Z,1005.55
2018-04-18T02:16:02.061Z,1005.52
2018-04-18T02:17:02.020Z,1005.58
2018-04-18T02:18:01.979Z,1005.58
2018-04-18T02:19:01.959Z,1005.57
2018-04-18T02:20:01.954Z,1005.58
2018-04-18T02:21:01.970Z,1005.56
2018-04-18T02:22:01.867Z,1005.59
2018-04-18T02:23:01.903Z,1005.62
2018-04-18T02:24:01.830Z,1005.59
2018-04-18T02:25:02.728Z,1005.56
2018-04-18T02:26:02.666Z,1005.57
2018-04-18T02:27:02.089Z,1005.60
2018-04-18T02:28:02.207Z,1005.55
2018-04-18T02:29:02.642Z,1005.55
2018-04-18T02:30:01.992Z,1005.54
2018-04-18T02:31:01.716Z,1005.54
2018-04-18T02:32:01.684Z,1005.52
2018-04-18T02:33:01.660Z,1005.52
2018-04-18T02:34:01.643Z,1005.55
2018-04-18T02:35:01.609Z,1005.52
2018-04-18T02:36:01.608Z,1005.56
2018-04-18T02:37:01.574Z,1005.59
2018-04-18T02:38:01.571Z,1005.57
2018-04-18T02:39:01.567Z,1005.58
2018-04-18T02:40:01.537Z,1005.60
2018-04-18T02:41:01.490Z,1005.58
2018-04-18T02:42:01.494Z,1005.55
2018-04-18T02:43:01.453Z,1005.58
2018-04-18T02:44:01.462Z,1005.55
2018-04-18T02:45:01.432Z,1005.57
2018-04-18T02:46:01.368Z,1005.62
2018-04-18T02:47:02.198Z,1005.59
2018-04-18T02:48:01.342Z,1005.60
2018-04-18T02:49:01.338Z,1005.63
2018-04-18T02:50:01.323Z,1005.61
2018-04-18T02:51:01.354Z,1005.61
2018-04-18T02:52:01.284Z,1005.63
2018-04-18T02:53:01.282Z,1005.62
2018-04-18T02:54:01.274Z,1005.64
2018-04-18T02:55:01.202Z,1005.62
2018-04-18T02:56:01.194Z,1005.61
2018-04-18T02:57:01.203Z,1005.65
2018-04-18T02:58:01.131Z,1005.64
2018-04-18T02:59:01.115Z,1005.69
2018-04-18T03:00:01.088Z,1005.71
2018-04-18T03:01:01.050Z,1005.66
2018-04-18T03:02:01.097Z,1005.70
2018-04-18T03:03:01.039Z,1005.68
2018-04-18T03:04:00.989Z,1005.70
2018-04-18T03:05:00.996Z,1005.68
2018-04-18T03:06:00.953Z,1005.68
2018-04-18T03:07:01.015Z,1005.69
2018-04-18T03:08:00.961Z,1005.72
2018-04-18T03:09:00.932Z,1005.74
2018-04-18T03:10:00.882Z,1005.77
2018-04-18T03:11:00.857Z,1005.79
2018-04-18T03:12:00.845Z,1005.79
2018-04-18T03:13:00.831Z,1005.81
2018-04-18T03:14:00.820Z,1005.79
2018-04-18T03:15:00.792Z,1005.78
2018-04-18T03:16:00.783Z,1005.77
2018-04-18T03:17:00.747Z,1005.79
2018-04-18T03:18:00.731Z,1005.84
2018-04-18T03:19:00.708Z,1005.81
2018-04-18T03:20:00.725Z,1005.86
2018-04-18T03:21:00.649Z,1005.77
2018-04-18T03:22:00.675Z,1005.80
2018-04-18T03:23:00.662Z,1005.80
2018-04-18T03:24:00.598Z,1005.77
2018-04-18T03:25:00.553Z,1005.76
2018-04-18T03:26:01.202Z,1005.78
2018-04-18T03:27:00.505Z,1005.78
2018-04-18T03:28:00.571Z,1005.80
2018-04-18T03:29:00.473Z,1005.83
2018-04-18T03:30:00.519Z,1005.79
2018-04-18T03:31:00.513Z,1005.83
2018-04-18T03:32:00.411Z,1005.80
2018-04-18T03:33:00.434Z,1005.83
2018-04-18T03:34:00.526Z,1005.78
2018-04-18T03:35:00.516Z,1005.78
2018-04-18T03:36:00.356Z,1005.79
2018-04-18T03:37:00.397Z,1005.82
2018-04-18T03:38:00.585Z,1005.82
2018-04-18T03:39:00.421Z,1005.82
2018-04-18T03:40:00.632Z,1005.85
2018-04-18T03:41:00.330Z,1005.82
2018-04-18T03:42:00.477Z,1005.84
2018-04-18T03:43:00.258Z,1005.84
2018-04-18T03:44:00.184Z,1005.88
2018-04-18T03:45:00.149Z,1005.89
2018-04-18T03:46:00.210Z,1005.92
2018-04-18T03:47:00.172Z,1005.93
2018-04-18T03:48:00.118Z,1005.94
2018-04-18T03:49:00.024Z,1005.96
2018-04-18T03:50:00.063Z,1005.98
2018-04-18T03:51:00.058Z,1005.97
2018-04-18T03:52:00.460Z,1005.94
2018-04-18T03:53:02.615Z,1005.93
2018-04-18T03:54:00.230Z,1005.90
2018-04-18T03:54:59.961Z,1005.90
2018-04-18T03:56:00.064Z,1005.90
2018-04-18T03:56:59.942Z,1005.92
2018-04-18T03:57:59.892Z,1005.96
2018-04-18T03:58:59.845Z,1005.96
2018-04-18T03:59:59.812Z,1005.94
2018-04-18T04:00:59.854Z,1005.93
2018-04-18T04:01:59.805Z,1005.93
2018-04-18T04:02:59.803Z,1005.92
2018-04-18T04:03:59.802Z,1005.93
2018-04-18T04:04:59.726Z,1005.95
2018-04-18T04:05:59.747Z,1005.97
2018-04-18T04:06:59.705Z,1005.98
2018-04-18T04:07:59.667Z,1005.99
2018-04-18T04:08:59.643Z,1005.98
2018-04-18T04:09:59.632Z,1005.98
2018-04-18T04:10:59.647Z,1005.99
2018-04-18T04:11:59.572Z,1006.01
2018-04-18T04:12:59.567Z,1006.02
2018-04-18T04:13:59.570Z,1006.01
2018-04-18T04:14:59.511Z,1006.02
2018-04-18T04:15:59.559Z,1006.02
2018-04-18T04:16:59.466Z,1006.03
2018-04-18T04:17:59.455Z,1006.02
2018-04-18T04:18:59.420Z,1006.03
2018-04-18T04:19:59.497Z,1006.04
2018-04-18T04:20:59.410Z,1006.04
2018-04-18T04:21:59.384Z,1006.04
2018-04-18T04:23:01.763Z,1006.06
2018-04-18T04:23:59.335Z,1006.12
2018-04-18T04:24:59.293Z,1006.10
2018-04-18T04:25:59.330Z,1006.10
2018-04-18T04:26:59.290Z,1006.14
2018-04-18T04:27:59.360Z,1006.16
2018-04-18T04:28:59.295Z,1006.14
2018-04-18T04:29:59.164Z,1006.17
2018-04-18T04:30:59.279Z,1006.18
2018-04-18T04:31:59.278Z,1006.18
2018-04-18T04:32:59.188Z,1006.22
2018-04-18T04:33:59.158Z,1006.22
2018-04-18T04:34:59.109Z,1006.21
2018-04-18T04:35:59.189Z,1006.20
2018-04-18T04:36:59.126Z,1006.23
2018-04-18T04:37:59.024Z,1006.24
2018-04-18T04:38:59.113Z,1006.24
2018-04-18T04:39:58.998Z,1006.29
2018-04-18T04:40:58.941Z,1006.28
2018-04-18T04:41:58.953Z,1006.31
2018-04-18T04:42:58.888Z,1006.32
2018-04-18T04:43:58.837Z,1006.33
2018-04-18T04:44:58.880Z,1006.37
2018-04-18T04:45:58.872Z,1006.34
2018-04-18T04:46:58.866Z,1006.36
2018-04-18T04:47:58.782Z,1006.36
2018-04-18T04:48:58.734Z,1006.36
2018-04-18T04:49:58.776Z,1006.37
2018-04-18T04:50:58.688Z,1006.37
2018-04-18T04:51:58.749Z,1006.37
2018-04-18T04:52:58.705Z,1006.38
2018-04-18T04:53:58.635Z,1006.41
2018-04-18T04:54:58.612Z,1006.42
2018-04-18T04:55:58.625Z,1006.43
2018-04-18T04:56:58.620Z,1006.43
2018-04-18T04:57:58.534Z,1006.40
2018-04-18T04:58:58.563Z,1006.42
2018-04-18T04:59:58.531Z,1006.42
2018-04-18T05:00:58.507Z,1006.44
2018-04-18T05:01:58.510Z,1006.48
2018-04-18T05:02:58.465Z,1006.45
2018-04-18T05:03:58.404Z,1006.50
2018-04-18T05:04:58.810Z,1006.50
2018-04-18T05:05:58.407Z,1006.48
2018-04-18T05:06:58.503Z,1006.47
2018-04-18T05:07:58.427Z,1006.49
2018-04-18T05:08:58.391Z,1006.51
2018-04-18T05:09:58.389Z,1006.53
2018-04-18T05:10:58.344Z,1006.54
2018-04-18T05:11:58.422Z,1006.59
2018-04-18T05:12:58.409Z,1006.54
2018-04-18T05:13:58.328Z,1006.60
2018-04-18T05:14:58.239Z,1006.58
2018-04-18T05:15:58.484Z,1006.62
2018-04-18T05:16:58.255Z,1006.62
2018-04-18T05:17:58.169Z,1006.65
2018-04-18T05:18:58.223Z,1006.67
2018-04-18T05:19:58.177Z,1006.70
2018-04-18T05:20:58.212Z,1006.70
2018-04-18T05:21:58.089Z,1006.70
2018-04-18T05:22:58.129Z,1006.69
2018-04-18T05:23:58.078Z,1006.71
2018-04-18T05:24:57.981Z,1006.70
2018-04-18T05:25:58.068Z,1006.70
2018-04-18T05:26:58.025Z,1006.73
2018-04-18T05:27:57.976Z,1006.70
2018-04-18T05:29:00.796Z,1006.73
2018-04-18T05:29:57.857Z,1006.73
2018-04-18T05:30:57.883Z,1006.72
2018-04-18T05:31:57.935Z,1006.71
2018-04-18T05:32:57.783Z,1006.71
2018-04-18T05:33:57.765Z,1006.75
2018-04-18T05:36:19.716Z,1006.79
2018-04-18T05:37:19.594Z,1006.83
2018-04-18T05:38:20.113Z,1006.82
2018-04-18T05:39:19.583Z,1006.84
2018-04-18T05:40:19.112Z,1006.83
2018-04-18T05:41:19.091Z,1006.85
2018-04-18T05:42:19.641Z,1006.88
2018-04-18T05:43:18.819Z,1006.89
2018-04-18T05:44:18.607Z,1006.91
2018-04-18T05:45:18.609Z,1006.96
2018-04-18T05:46:18.560Z,1006.96
2018-04-18T05:49:53.497Z,1006.98
2018-04-18T05:50:53.977Z,1006.99
2018-04-18T05:52:48.758Z,1006.97
2018-04-18T05:53:47.783Z,1006.99
2018-04-18T05:54:47.730Z,1007.00
2018-04-18T05:55:48.235Z,1007.02
2018-04-18T05:56:48.591Z,1007.02
2018-04-18T05:57:47.989Z,1007.09
2018-04-18T05:58:48.202Z,1007.10
2018-04-18T05:59:47.652Z,1007.11
2018-04-18T06:00:47.555Z,1007.12
2018-04-18T06:01:47.360Z,1007.14
2018-04-18T06:02:47.144Z,1007.16
2018-04-18T06:03:47.573Z,1007.16
2018-04-18T06:04:47.474Z,1007.20
2018-04-18T06:33:49.089Z,1008.77
2018-04-18T06:34:41.616Z,1008.43
2018-04-18T06:35:40.233Z,1008.33
2018-04-18T06:36:40.339Z,1008.26
2018-04-18T06:37:40.672Z,1008.14
2018-04-18T06:38:40.254Z,1008.09
2018-04-18T06:39:40.145Z,1008.07
2018-04-18T06:40:40.419Z,1008.12
2018-04-18T07:54:35.617Z,1008.21
2018-04-18T07:55:34.971Z,1008.16
2018-04-18T08:03:58.584Z,1008.30
2018-04-18T09:58:33.706Z,1008.31
2018-04-18T09:59:33.583Z,1008.27
2018-04-18T10:00:33.670Z,1008.26
2018-04-18T10:01:34.136Z,1008.27
2018-04-18T10:02:33.486Z,1008.26
2018-04-18T10:03:33.538Z,1008.26
2018-04-18T10:04:33.508Z,1008.23
2018-04-18T10:05:34.142Z,1008.26
2018-04-18T10:06:33.535Z,1008.26
2018-04-18T10:07:34.200Z,1008.27
2018-04-18T10:08:34.043Z,1008.25
2018-04-18T10:09:33.247Z,1008.26
2018-04-18T10:10:33.361Z,1008.25
2018-04-18T10:11:33.233Z,1008.25
2018-04-18T10:12:33.473Z,1008.22
2018-04-18T10:13:33.932Z,1008.22
2018-04-18T10:14:33.777Z,1008.23
2018-04-18T10:15:33.477Z,1008.21
2018-04-18T10:16:33.502Z,1008.23
2018-04-18T10:17:33.304Z,1008.22
2018-04-18T10:18:33.315Z,1008.24
2018-04-18T10:19:33.291Z,1008.25
2018-04-18T10:20:33.545Z,1008.22
2018-04-18T10:21:33.269Z,1008.20
2018-04-18T10:22:33.245Z,1008.21
2018-04-18T10:23:33.339Z,1008.22
2018-04-18T10:24:33.292Z,1008.19
2018-04-18T10:25:33.257Z,1008.22
2018-04-18T10:26:33.343Z,1008.23
2018-04-18T10:27:33.268Z,1008.22
2018-04-18T10:28:33.298Z,1008.21
2018-04-18T10:29:33.277Z,1008.23
2018-04-18T10:30:33.332Z,1008.22
2018-04-18T10:31:33.344Z,1008.22
2018-04-18T10:32:33.294Z,1008.17
2018-04-18T10:33:33.280Z,1008.19
2018-04-18T10:34:33.325Z,1008.23
2018-04-18T10:35:33.310Z,1008.22
2018-04-18T10:36:33.352Z,1008.09
2018-04-18T10:37:33.325Z,1008.16
2018-04-18T10:38:33.316Z,1008.17
2018-04-18T10:39:33.332Z,1008.21
2018-04-18T10:40:33.334Z,1008.16
2018-04-18T10:41:33.337Z,1008.18
2018-04-18T10:42:33.373Z,1008.20
2018-04-18T10:43:33.356Z,1008.20
2018-04-18T10:44:34.063Z,1008.22
2018-04-18T10:45:33.374Z,1008.21
2018-04-18T10:46:34.037Z,1008.21
2018-04-18T10:47:33.547Z,1008.21
2018-04-18T10:48:33.901Z,1008.38
2018-04-18T10:49:33.388Z,1008.49
2018-04-18T10:50:33.382Z,1008.53
2018-04-18T10:51:33.382Z,1008.49
2018-04-18T10:52:33.387Z,1008.36
2018-04-18T10:53:33.398Z,1008.34
2018-04-18T10:54:33.455Z,1008.31
2018-04-18T10:55:33.554Z,1008.30
2018-04-18T10:56:33.468Z,1008.27
2018-04-18T10:57:33.952Z,1008.25
2018-04-18T10:58:33.470Z,1008.18
2018-04-18T10:59:33.445Z,1008.19
2018-04-18T11:00:33.455Z,1008.16
2018-04-18T11:01:33.467Z,1008.12
2018-04-18T11:02:33.684Z,1008.08
2018-04-18T11:03:33.579Z,1008.11
2018-04-18T11:04:33.491Z,1008.10
2018-04-18T11:05:33.510Z,1008.07
2018-04-18T11:06:33.498Z,1008.03
2018-04-18T11:07:33.562Z,1008.00
2018-04-18T11:08:33.504Z,1008.01
2018-04-18T11:09:33.501Z,1007.99
2018-04-18T11:10:33.712Z,1008.00
2018-04-18T11:11:33.677Z,1007.98
2018-04-18T11:12:33.562Z,1007.98
2018-04-18T11:13:33.624Z,1007.98
2018-04-18T11:14:33.543Z,1007.94
2018-04-18T11:15:33.584Z,1008.01
2018-04-18T11:16:33.699Z,1008.01
2018-04-18T11:17:33.668Z,1008.00
2018-04-18T11:18:33.830Z,1007.97
2018-04-18T11:19:33.563Z,1007.98
2018-04-18T11:20:33.617Z,1007.96
2018-04-18T11:21:33.619Z,1007.94
2018-04-18T11:22:33.770Z,1007.96
2018-04-18T11:23:33.588Z,1007.97
2018-04-18T11:24:33.606Z,1008.01
2018-04-18T11:25:33.634Z,1007.99
2018-04-18T11:26:33.709Z,1008.00
2018-04-18T11:27:33.639Z,1008.01
2018-04-18T11:28:33.645Z,1007.98
2018-04-18T11:29:33.657Z,1008.00
2018-04-18T11:30:33.692Z,1008.00
2018-04-18T11:31:33.859Z,1008.00
2018-04-18T11:32:33.851Z,1007.97
2018-04-18T11:33:33.742Z,1007.91
2018-04-18T11:34:33.675Z,1007.86
2018-04-18T11:35:33.688Z,1007.87
2018-04-18T11:36:33.649Z,1007.90
2018-04-18T11:37:33.732Z,1007.87
2018-04-18T11:38:33.687Z,1007.87
2018-04-18T11:39:33.713Z,1007.85
2018-04-18T11:40:33.703Z,1007.84
2018-04-18T11:41:35.504Z,1007.86
2018-04-18T11:42:33.694Z,1007.84
2018-04-18T11:43:33.680Z,1007.92
2018-04-18T11:44:33.645Z,1007.94
2018-04-18T11:45:33.751Z,1007.90
2018-04-18T11:46:33.684Z,1007.96
2018-04-18T11:47:33.691Z,1007.97
2018-04-18T11:48:33.682Z,1007.91
2018-04-18T11:49:33.767Z,1007.93
2018-04-18T11:50:33.727Z,1007.90
2018-04-18T11:51:33.700Z,1007.88
2018-04-18T11:52:33.711Z,1007.87
2018-04-18T11:53:33.750Z,1007.85
2018-04-18T11:54:33.726Z,1007.90
2018-04-18T11:55:33.736Z,1007.87
2018-04-18T11:56:33.954Z,1007.90
2018-04-18T11:57:33.888Z,1007.90
2018-04-18T11:58:34.019Z,1007.91
2018-04-18T11:59:33.977Z,1007.89
2018-04-18T12:00:34.048Z,1007.88
2018-04-18T12:01:34.261Z,1007.92
2018-04-18T12:02:34.599Z,1007.90
2018-04-18T12:03:34.599Z,1007.95
2018-04-18T12:04:34.515Z,1007.90
2018-04-18T12:05:34.151Z,1007.89
2018-04-18T12:06:34.759Z,1007.90
2018-04-18T12:07:33.892Z,1007.92
2018-04-18T12:08:34.046Z,1007.93
2018-04-18T12:09:33.897Z,1007.86
2018-04-18T12:10:33.843Z,1007.86
2018-04-18T12:11:33.780Z,1007.86
2018-04-18T12:12:33.743Z,1007.83
2018-04-18T12:13:34.392Z,1007.85
2018-04-18T12:14:33.795Z,1007.85
2018-04-18T12:15:34.192Z,1007.87
2018-04-18T12:16:33.931Z,1007.84
2018-04-18T12:17:33.964Z,1007.85
2018-04-18T12:18:34.105Z,1007.85
2018-04-18T12:19:34.531Z,1007.87
2018-04-18T12:20:34.020Z,1007.89
2018-04-18T12:21:33.946Z,1007.85
2018-04-18T12:22:33.810Z,1007.92
2018-04-18T12:23:34.060Z,1007.89
2018-04-18T12:24:33.813Z,1007.88
2018-04-18T12:25:33.828Z,1007.86
2018-04-18T12:26:33.833Z,1007.88
2018-04-18T12:27:33.819Z,1007.85
2018-04-18T12:28:33.832Z,1007.90
2018-04-18T12:29:33.794Z,1007.93
2018-04-18T12:30:33.832Z,1007.94
2018-04-18T12:31:33.803Z,1007.93
2018-04-18T12:32:33.846Z,1007.99
2018-04-18T12:33:33.825Z,1007.97
2018-04-18T12:34:33.850Z,1007.97
2018-04-18T12:35:33.921Z,1007.96
2018-04-18T12:36:33.834Z,1007.97
2018-04-18T12:37:33.871Z,1007.96
2018-04-18T12:38:33.824Z,1007.94
2018-04-18T12:39:33.827Z,1007.93
2018-04-18T12:40:33.848Z,1007.93
2018-04-18T12:41:33.857Z,1007.90
2018-04-18T12:42:33.873Z,1007.96
2018-04-18T12:43:33.876Z,1007.96
2018-04-18T12:44:33.852Z,1007.91
2018-04-18T12:45:33.869Z,1007.85
2018-04-18T12:46:33.859Z,1007.84
2018-04-18T12:47:33.854Z,1007.77
2018-04-18T12:48:33.862Z,1007.76
2018-04-18T12:49:33.867Z,1007.83
2018-04-18T12:50:33.886Z,1007.73
2018-04-18T12:51:33.893Z,1007.69
2018-04-18T12:52:33.897Z,1007.74
2018-04-18T12:53:33.900Z,1007.75
2018-04-18T12:54:33.913Z,1007.74
2018-04-18T12:55:33.905Z,1007.69
2018-04-18T12:56:33.948Z,1007.68
2018-04-18T12:57:33.883Z,1007.70
2018-04-18T12:58:33.879Z,1007.68
2018-04-18T12:59:33.896Z,1007.68
2018-04-18T13:00:33.860Z,1007.76
2018-04-18T13:01:33.855Z,1007.79
2018-04-18T13:02:33.942Z,1007.78
2018-04-18T13:03:33.973Z,1007.83
2018-04-18T13:04:33.923Z,1007.87
2018-04-18T13:05:33.926Z,1007.86
2018-04-18T13:06:33.908Z,1007.86
2018-04-18T13:07:34.079Z,1007.83
2018-04-18T13:08:33.899Z,1007.83
2018-04-18T13:09:33.919Z,1007.81
2018-04-18T13:10:33.997Z,1007.80
2018-04-18T13:11:33.922Z,1007.83
2018-04-18T13:12:33.869Z,1007.86
2018-04-18T13:13:33.925Z,1007.92
2018-04-18T13:14:33.934Z,1007.88
2018-04-18T13:15:33.868Z,1007.83
2018-04-18T13:16:33.937Z,1007.82
2018-04-18T13:17:33.968Z,1007.78
2018-04-18T13:18:33.963Z,1007.79
2018-04-18T13:19:33.901Z,1007.77
2018-04-18T13:20:33.893Z,1007.74
2018-04-18T13:21:33.935Z,1007.71
2018-04-18T13:22:33.892Z,1007.70
2018-04-18T13:23:33.911Z,1007.72
2018-04-18T13:24:33.917Z,1007.67
2018-04-18T13:25:33.960Z,1007.65
2018-04-18T13:26:33.907Z,1007.66
2018-04-18T13:27:34.053Z,1007.66
2018-04-18T13:28:33.987Z,1007.60
2018-04-18T13:29:33.877Z,1007.54
2018-04-18T13:30:34.277Z,1007.51
2018-04-18T13:31:33.987Z,1007.44
2018-04-18T13:32:33.913Z,1007.44
2018-04-18T13:33:33.991Z,1007.47
2018-04-18T13:34:33.954Z,1007.47
2018-04-18T13:35:33.956Z,1007.48
2018-04-18T13:36:34.000Z,1007.49
2018-04-18T13:37:33.937Z,1007.50
2018-04-18T13:38:36.763Z,1007.44
2018-04-18T13:39:34.016Z,1007.43
2018-04-18T13:40:34.974Z,1007.48
2018-04-18T13:41:33.906Z,1007.48
2018-04-18T13:42:34.016Z,1007.45
2018-04-18T13:43:34.589Z,1007.44
2018-04-18T13:44:33.946Z,1007.39
2018-04-18T13:45:33.957Z,1007.35
2018-04-18T13:46:33.957Z,1007.38
2018-04-18T13:47:33.975Z,1007.33
2018-04-18T13:48:33.914Z,1007.31
2018-04-18T13:49:33.930Z,1007.32
2018-04-18T13:50:33.911Z,1007.34
2018-04-18T13:51:33.987Z,1007.34
2018-04-18T13:52:34.141Z,1007.39
2018-04-18T13:53:34.192Z,1007.37
2018-04-18T13:54:33.992Z,1007.35
2018-04-18T13:55:34.066Z,1007.34
2018-04-18T13:56:34.312Z,1007.41
2018-04-18T13:57:33.932Z,1007.33
2018-04-18T13:58:33.922Z,1007.30
2018-04-18T13:59:34.182Z,1007.28
2018-04-18T14:00:34.073Z,1007.27
2018-04-18T14:01:34.167Z,1007.26
2018-04-18T14:02:33.950Z,1007.28
2018-04-18T14:03:33.978Z,1007.25
2018-04-18T14:04:34.072Z,1007.25
2018-04-18T14:05:33.981Z,1007.26
2018-04-18T14:06:38.688Z,1007.27
2018-04-18T14:07:33.902Z,1007.26
2018-04-18T14:08:34.093Z,1007.23
2018-04-18T14:09:34.024Z,1007.21
2018-04-18T14:10:34.054Z,1007.20
2018-04-18T14:11:34.029Z,1007.18
2018-04-18T14:12:34.043Z,1007.13
2018-04-18T14:13:33.948Z,1007.08
2018-04-18T14:14:34.249Z,1007.07
2018-04-18T14:15:34.474Z,1007.09
2018-04-18T14:16:35.003Z,1007.08
2018-04-18T14:17:33.917Z,1007.11
2018-04-18T14:18:34.262Z,1007.09
2018-04-18T14:19:33.926Z,1007.08
2018-04-18T14:20:34.332Z,1007.04
2018-04-18T14:21:33.944Z,1006.99
2018-04-18T14:22:34.243Z,1006.95
2018-04-18T14:23:33.907Z,1006.97
2018-04-18T14:24:34.590Z,1006.93
2018-04-18T14:25:34.249Z,1006.98
2018-04-18T14:26:34.624Z,1006.96
2018-04-18T14:27:35.511Z,1006.94
2018-04-18T14:28:34.750Z,1006.90
2018-04-18T14:29:33.908Z,1006.71
2018-04-18T14:30:33.884Z,1006.54
2018-04-18T14:31:33.903Z,1006.42
2018-04-18T14:32:33.943Z,1006.23
2018-04-18T14:33:33.877Z,1006.22
2018-04-18T14:34:35.731Z,1006.23
2018-04-18T14:35:34.084Z,1006.20
2018-04-18T14:36:33.892Z,1006.17
2018-04-18T14:37:33.927Z,1006.16
2018-04-18T14:38:33.846Z,1006.19
2018-04-18T14:39:33.865Z,1006.15
2018-04-18T14:40:33.837Z,1006.10
2018-04-18T14:41:33.865Z,1006.09
2018-04-18T14:42:33.903Z,1006.04
2018-04-18T14:43:33.878Z,1006.13
2018-04-18T14:44:33.869Z,1006.13
2018-04-18T14:45:33.965Z,1006.05
2018-04-18T14:46:36.593Z,1006.08
2018-04-18T14:47:35.437Z,1006.06
2018-04-18T15:06:04.125Z,1005.94
2018-04-18T15:20:48.791Z,1005.89
2018-04-18T15:21:48.167Z,1005.86
2018-04-18T15:22:48.168Z,1005.84
2018-04-18T15:23:47.964Z,1005.85
2018-04-18T15:24:49.296Z,1005.84
2018-04-18T15:25:48.895Z,1005.85
2018-04-18T15:26:48.276Z,1005.81
2018-04-18T15:27:48.065Z,1005.80
2018-04-18T15:28:47.953Z,1005.79
2018-04-18T15:29:48.091Z,1005.78
2018-04-18T15:30:48.085Z,1005.77
2018-04-18T15:31:48.041Z,1005.74
2018-04-18T15:32:48.114Z,1005.77
2018-04-18T15:33:48.051Z,1005.80
2018-04-18T15:34:48.253Z,1005.78
2018-04-18T15:35:47.896Z,1005.77
2018-04-18T15:36:47.870Z,1005.75
2018-04-18T15:37:47.843Z,1005.76
2018-04-18T15:38:47.808Z,1005.75
2018-04-18T15:39:47.793Z,1005.72
2018-04-18T15:40:47.766Z,1005.72
2018-04-18T15:41:47.842Z,1005.66
2018-04-18T15:42:47.781Z,1005.68
2018-04-18T15:43:47.756Z,1005.66
2018-04-18T15:44:47.724Z,1005.68
2018-04-18T15:45:47.804Z,1005.64
2018-04-18T15:46:47.698Z,1005.65
2018-04-18T15:47:47.714Z,1005.66
2018-04-18T15:48:47.918Z,1005.67
2018-04-18T15:49:47.708Z,1005.66
2018-04-18T15:50:49.459Z,1005.70
2018-04-18T15:51:47.678Z,1005.65
2018-04-18T15:52:47.715Z,1005.62
2018-04-18T15:53:47.644Z,1005.69
2018-04-18T15:54:47.589Z,1005.65
2018-04-18T15:55:47.602Z,1005.65
2018-04-18T15:56:47.609Z,1005.64
2018-04-18T15:57:47.674Z,1005.67
2018-04-18T15:58:47.599Z,1005.64
2018-04-18T15:59:47.596Z,1005.64
2018-04-18T16:00:47.541Z,1005.63
2018-04-18T16:01:47.605Z,1005.62
2018-04-18T16:02:47.920Z,1005.63
2018-04-18T16:03:47.577Z,1005.59
2018-04-18T16:04:47.545Z,1005.61
2018-04-18T16:05:47.489Z,1005.58
2018-04-18T16:06:47.545Z,1005.57
2018-04-18T16:07:47.574Z,1005.57
2018-04-18T16:08:47.737Z,1005.55
2018-04-18T16:09:47.453Z,1005.53
2018-04-18T16:10:48.484Z,1005.55
2018-04-18T16:11:47.373Z,1005.58
2018-04-18T16:12:47.394Z,1005.54
2018-04-18T16:13:47.367Z,1005.54
2018-04-18T16:14:47.440Z,1005.55
2018-04-18T16:15:47.381Z,1005.54
2018-04-18T16:16:47.335Z,1005.55
2018-04-18T16:17:47.496Z,1005.55
2018-04-18T16:18:47.331Z,1005.52
2018-04-18T16:19:47.398Z,1005.50
2018-04-18T16:20:47.340Z,1005.54
2018-04-18T16:21:47.351Z,1005.50
2018-04-18T16:22:47.691Z,1005.48